Time;durP1;ratioP1;P1;durP2;ratioP2;P2;SDS_P1;SDS_P2;PMS_P1;PMS_P2;Temp;Humidity;BMP_temperature;BMP_pressure;BME280_temperature;BME280_humidity;BME280_pressure;Samples;Min_cycle;Max_cycle;Signal;HPM_P1;HPM_P2
2020/12/29 00:01:35;;;;;;;2.07;0.97;;;4.40;87.60;;;;;;5052331;28;20053;-75
2020/12/29 00:04:02;;;;;;;3.27;1.00;;;4.40;87.60;;;;;;5050779;28;20516;-76
2020/12/29 00:06:27;;;;;;;1.93;0.90;;;4.50;87.80;;;;;;5051445;28;20025;-75
2020/12/29 00:08:53;;;;;;;1.57;0.80;;;4.50;88.00;;;;;;5051996;28;20025;-74
2020/12/29 00:11:19;;;;;;;5.00;1.07;;;4.40;88.40;;;;;;5052531;28;20489;-75
2020/12/29 00:13:44;;;;;;;2.37;0.80;;;4.30;88.50;;;;;;5052471;28;20029;-75
2020/12/29 00:16:10;;;;;;;1.83;0.70;;;4.30;88.60;;;;;;5051967;28;20033;-75
2020/12/29 00:18:36;;;;;;;2.83;0.77;;;4.40;88.60;;;;;;5051261;28;20025;-75
2020/12/29 00:21:01;;;;;;;1.70;0.70;;;4.30;88.60;;;;;;5051382;28;20520;-75
2020/12/29 00:23:28;;;;;;;2.93;0.73;;;4.40;88.70;;;;;;5050851;28;20079;-75
2020/12/29 00:25:54;;;;;;;2.27;0.80;;;4.40;88.70;;;;;;5052116;28;20028;-74
2020/12/29 00:28:20;;;;;;;2.17;0.70;;;4.40;88.60;;;;;;5051118;28;20048;-75
2020/12/29 00:30:46;;;;;;;1.80;0.63;;;4.40;88.00;;;;;;5050835;28;20029;-75
2020/12/29 00:33:11;;;;;;;2.33;0.70;;;4.40;88.00;;;;;;5050455;28;20021;-75
2020/12/29 00:35:37;;;;;;;1.73;0.50;;;4.30;87.90;;;;;;5052327;28;20021;-75
2020/12/29 00:38:03;;;;;;;1.30;0.60;;;4.30;87.50;;;;;;5050401;28;20025;-74
2020/12/29 00:40:29;;;;;;;0.63;0.50;;;4.40;87.30;;;;;;5052514;28;20036;-75
2020/12/29 00:42:54;;;;;;;1.40;0.40;;;4.30;87.30;;;;;;5051536;28;20029;-74
2020/12/29 00:45:20;;;;;;;0.30;0.10;;;4.40;87.10;;;;;;5052501;28;20048;-75
2020/12/29 00:47:46;;;;;;;0.33;0.20;;;4.50;87.10;;;;;;5052260;28;20386;-75
2020/12/29 00:50:11;;;;;;;0.40;0.20;;;4.50;86.90;;;;;;5051554;28;20078;-75
2020/12/29 00:52:37;;;;;;;0.40;0.17;;;4.50;86.90;;;;;;5050892;28;20025;-75
2020/12/29 00:55:02;;;;;;;1.00;0.23;;;4.50;86.70;;;;;;5051560;28;20024;-74
2020/12/29 00:57:28;;;;;;;0.47;0.17;;;4.60;86.30;;;;;;5052515;28;20079;-75
2020/12/29 00:59:54;;;;;;;0.47;0.10;;;4.70;86.20;;;;;;5050703;28;20028;-75
2020/12/29 01:02:19;;;;;;;1.70;0.20;;;4.70;85.90;;;;;;5051468;28;20032;-75
2020/12/29 01:04:45;;;;;;;0.93;0.10;;;4.70;86.00;;;;;;5050846;28;20114;-75
2020/12/29 01:07:10;;;;;;;2.57;0.20;;;4.70;86.10;;;;;;5052208;28;20037;-74
2020/12/29 01:09:36;;;;;;;0.77;0.20;;;4.70;86.10;;;;;;5054563;28;20036;-75
2020/12/29 01:12:02;;;;;;;0.30;0.10;;;4.80;85.60;;;;;;5053931;28;20025;-75
2020/12/29 01:14:28;;;;;;;0.27;0.10;;;4.90;85.50;;;;;;5054196;28;20028;-75
2020/12/29 01:16:53;;;;;;;0.20;0.10;;;4.90;85.90;;;;;;5055668;28;20035;-75
2020/12/29 01:19:19;;;;;;;0.17;0.10;;;4.90;85.90;;;;;;5053752;28;20115;-75
2020/12/29 01:21:45;;;;;;;0.57;0.10;;;4.90;86.20;;;;;;5053869;28;20433;-75
2020/12/29 01:24:10;;;;;;;0.03;0.03;;;4.80;86.40;;;;;;5054977;28;20040;-75
2020/12/29 01:26:36;;;;;;;0.90;0.10;;;4.90;86.40;;;;;;5055234;28;20017;-75
2020/12/29 01:29:02;;;;;;;0.60;0.20;;;4.90;86.10;;;;;;5053564;28;20029;-74
2020/12/29 01:31:29;;;;;;;0.87;0.20;;;4.90;86.20;;;;;;5054119;28;20123;-75
2020/12/29 01:33:56;;;;;;;0.37;0.13;;;4.80;86.60;;;;;;5055378;28;20519;-75
2020/12/29 01:36:22;;;;;;;0.70;0.10;;;4.80;86.60;;;;;;5053425;28;20029;-75
2020/12/29 01:38:48;;;;;;;0.73;0.10;;;4.80;86.40;;;;;;5055308;28;20033;-75
2020/12/29 01:41:14;;;;;;;0.30;0.10;;;4.80;86.60;;;;;;5053059;28;20029;-74
2020/12/29 01:43:39;;;;;;;0.10;0.00;;;4.80;86.80;;;;;;5053880;28;20040;-75
2020/12/29 01:46:05;;;;;;;0.10;0.10;;;4.80;86.70;;;;;;5053332;28;20059;-74
2020/12/29 01:48:31;;;;;;;0.30;0.07;;;4.80;86.60;;;;;;5053861;28;20025;-75
2020/12/29 01:50:57;;;;;;;0.27;0.13;;;4.80;86.80;;;;;;5055194;28;20451;-75
2020/12/29 01:53:22;;;;;;;0.00;0.00;;;4.80;86.70;;;;;;5054387;28;20028;-75
2020/12/29 01:55:48;;;;;;;1.17;0.10;;;4.70;86.70;;;;;;5053751;28;20025;-75
2020/12/29 01:58:14;;;;;;;0.67;0.10;;;4.70;86.60;;;;;;5053138;28;20126;-74
2020/12/29 02:00:40;;;;;;;1.20;0.00;;;4.70;86.80;;;;;;5053592;28;20033;-75
2020/12/29 02:03:10;;;;;;;0.00;0.00;;;4.70;86.90;;;;;;5053013;28;20438;-75
2020/12/29 02:05:37;;;;;;;0.57;0.10;;;4.60;86.80;;;;;;5053711;28;20032;-75
2020/12/29 02:08:03;;;;;;;0.13;0.10;;;4.60;87.10;;;;;;5052954;28;20067;-74
2020/12/29 02:10:29;;;;;;;0.10;0.10;;;4.50;86.90;;;;;;5053707;28;20056;-75
2020/12/29 02:12:56;;;;;;;0.10;0.10;;;4.50;86.90;;;;;;5054771;28;20029;-73
2020/12/29 02:15:22;;;;;;;0.30;0.10;;;4.50;86.90;;;;;;5052761;28;20049;-73
2020/12/29 02:17:47;;;;;;;0.43;0.20;;;4.50;86.90;;;;;;5054477;28;20061;-73
2020/12/29 02:20:13;;;;;;;1.70;0.20;;;4.50;87.10;;;;;;5053368;28;20056;-73
2020/12/29 02:22:38;;;;;;;0.47;0.20;;;4.50;87.20;;;;;;5053419;28;20521;-75
2020/12/29 02:25:07;;;;;;;0.50;0.10;;;4.50;87.20;;;;;;5052601;28;20029;-73
2020/12/29 02:27:44;;;;;;;2.13;0.17;;;4.50;87.30;;;;;;5053308;28;20110;-72
2020/12/29 02:30:10;;;;;;;1.13;0.10;;;4.50;87.10;;;;;;5052698;28;20025;-73
2020/12/29 02:32:37;;;;;;;2.30;0.10;;;4.50;87.20;;;;;;5053094;28;20032;-73
2020/12/29 02:35:03;;;;;;;0.30;0.10;;;4.60;87.00;;;;;;5053705;28;20052;-72
2020/12/29 02:37:28;;;;;;;1.07;0.20;;;4.60;86.80;;;;;;5052932;28;20453;-73
2020/12/29 02:39:54;;;;;;;1.30;0.10;;;4.60;86.50;;;;;;5053767;28;20044;-73
2020/12/29 02:42:20;;;;;;;1.20;0.20;;;4.60;86.50;;;;;;5053545;28;20539;-72
2020/12/29 02:44:45;;;;;;;0.43;0.13;;;4.70;86.40;;;;;;5052855;28;20029;-73
2020/12/29 02:47:11;;;;;;;0.20;0.20;;;4.70;86.40;;;;;;5052207;28;20035;-72
2020/12/29 02:49:37;;;;;;;1.80;0.30;;;4.80;86.20;;;;;;5053920;28;20031;-73
2020/12/29 02:52:04;;;;;;;2.30;0.20;;;4.80;87.10;;;;;;5053034;28;20466;-72
2020/12/29 02:54:29;;;;;;;2.10;0.30;;;4.90;86.00;;;;;;5054117;28;20039;-73
2020/12/29 02:56:55;;;;;;;3.23;0.17;;;5.00;86.00;;;;;;5053849;28;20100;-73
2020/12/29 02:59:22;;;;;;;0.63;0.10;;;4.90;86.30;;;;;;5051914;28;20025;-73
2020/12/29 03:01:48;;;;;;;0.50;0.10;;;4.90;86.50;;;;;;5053701;28;20042;-73
2020/12/29 03:04:13;;;;;;;1.13;0.10;;;5.00;86.20;;;;;;5051930;28;20037;-73
2020/12/29 03:06:39;;;;;;;2.63;0.20;;;5.00;86.50;;;;;;5052390;28;20036;-73
2020/12/29 03:09:05;;;;;;;1.23;0.20;;;5.00;86.30;;;;;;5053298;28;20032;-73
2020/12/29 03:11:32;;;;;;;1.83;0.13;;;5.00;86.30;;;;;;5052281;28;20033;-73
2020/12/29 03:14:00;;;;;;;1.77;0.23;;;5.10;86.20;;;;;;5052150;28;20389;-73
2020/12/29 03:16:27;;;;;;;0.60;0.20;;;5.10;86.10;;;;;;5052805;28;20478;-73
2020/12/29 03:18:53;;;;;;;0.60;0.00;;;5.10;85.70;;;;;;5052046;28;20354;-73
2020/12/29 03:21:19;;;;;;;1.03;0.07;;;5.20;86.30;;;;;;5050842;28;20106;-72
2020/12/29 03:23:46;;;;;;;0.30;0.00;;;5.20;86.10;;;;;;5053343;28;20112;-73
2020/12/29 03:26:11;;;;;;;0.87;0.10;;;5.20;86.10;;;;;;5052354;28;20033;-73
2020/12/29 03:28:37;;;;;;;0.00;0.00;;;5.20;85.80;;;;;;5052076;28;20100;-73
2020/12/29 03:31:04;;;;;;;0.13;0.00;;;5.20;86.10;;;;;;5051082;28;20040;-73
2020/12/29 03:33:30;;;;;;;0.03;0.00;;;5.20;86.20;;;;;;5051778;28;20029;-73
2020/12/29 03:35:55;;;;;;;0.00;0.00;;;5.20;86.30;;;;;;5051877;28;20477;-73
2020/12/29 03:38:21;;;;;;;0.10;0.00;;;5.20;86.40;;;;;;5051222;28;20040;-75
2020/12/29 03:40:48;;;;;;;0.00;0.00;;;5.20;86.00;;;;;;5052667;28;20025;-73
2020/12/29 03:43:14;;;;;;;0.10;0.10;;;5.20;85.80;;;;;;5052416;28;20040;-72
2020/12/29 03:45:44;;;;;;;0.17;0.07;;;5.20;85.70;;;;;;5051670;28;20381;-73
2020/12/29 03:48:12;;;;;;;0.97;0.10;;;5.20;85.80;;;;;;5052302;28;20029;-72
2020/12/29 03:50:39;;;;;;;0.67;0.20;;;5.20;85.70;;;;;;5052961;28;20359;-73
2020/12/29 03:53:05;;;;;;;0.50;0.20;;;5.20;85.70;;;;;;5052771;28;20017;-73
2020/12/29 03:55:32;;;;;;;1.17;0.20;;;5.20;85.80;;;;;;5052773;28;20101;-73
2020/12/29 03:57:58;;;;;;;1.53;0.20;;;5.20;86.00;;;;;;5052981;28;20063;-73
2020/12/29 04:00:24;;;;;;;1.07;0.20;;;5.20;85.70;;;;;;5050891;28;20455;-73
2020/12/29 04:02:50;;;;;;;0.77;0.30;;;5.20;85.90;;;;;;5052709;28;20024;-73
2020/12/29 04:05:16;;;;;;;0.50;0.10;;;5.20;86.00;;;;;;5050792;28;20437;-75
2020/12/29 04:07:43;;;;;;;0.27;0.10;;;5.20;85.90;;;;;;5051289;28;20082;-73
2020/12/29 04:10:09;;;;;;;1.20;0.17;;;5.30;85.90;;;;;;5052034;28;20111;-72
2020/12/29 04:12:34;;;;;;;0.53;0.10;;;5.20;86.00;;;;;;5052351;28;20099;-72
2020/12/29 04:15:00;;;;;;;1.80;0.20;;;5.20;86.00;;;;;;5051245;28;20478;-73
2020/12/29 04:17:26;;;;;;;1.33;0.10;;;5.20;86.10;;;;;;5051869;28;20025;-73
2020/12/29 04:19:52;;;;;;;1.53;0.30;;;5.20;86.50;;;;;;5052129;28;20025;-73
2020/12/29 04:22:18;;;;;;;0.73;0.20;;;5.20;86.60;;;;;;5050844;28;20025;-73
2020/12/29 04:24:43;;;;;;;1.70;0.20;;;5.20;86.40;;;;;;5051212;28;20021;-73
2020/12/29 04:27:09;;;;;;;0.73;0.20;;;5.20;86.40;;;;;;5051902;28;20488;-73
2020/12/29 04:29:35;;;;;;;1.80;0.30;;;5.20;86.10;;;;;;5052603;28;20029;-74
2020/12/29 04:32:00;;;;;;;0.67;0.10;;;5.20;86.40;;;;;;5051256;28;20033;-74
2020/12/29 04:34:26;;;;;;;0.20;0.00;;;5.30;86.80;;;;;;5050523;28;20028;-75
2020/12/29 04:36:53;;;;;;;2.00;0.10;;;4.80;85.20;;;;;;5052541;28;20029;-74
2020/12/29 04:39:19;;;;;;;0.83;0.00;;;4.10;87.80;;;;;;5050484;28;20103;-74
2020/12/29 04:41:51;;;;;;;0.67;0.00;;;3.60;89.50;;;;;;5051680;28;20541;-74
2020/12/29 04:44:16;;;;;;;0.63;0.00;;;3.30;90.40;;;;;;5056166;28;20116;-74
2020/12/29 04:46:43;;;;;;;0.43;0.10;;;3.10;90.90;;;;;;5056334;28;20062;-74
2020/12/29 04:49:09;;;;;;;0.77;0.10;;;2.90;91.10;;;;;;5056296;28;20021;-74
2020/12/29 04:51:36;;;;;;;0.73;0.10;;;2.90;91.20;;;;;;5054897;28;20048;-74
2020/12/29 04:54:06;;;;;;;2.07;0.23;;;2.90;91.40;;;;;;5054895;28;20028;-74
2020/12/29 04:56:33;;;;;;;1.97;0.40;;;2.80;91.30;;;;;;5054330;28;20025;-74
2020/12/29 04:59:03;;;;;;;1.70;0.40;;;2.70;91.10;;;;;;5054779;28;20516;-74
2020/12/29 05:01:34;;;;;;;1.50;0.40;;;2.70;91.30;;;;;;5054112;28;20036;-74
2020/12/29 05:04:00;;;;;;;1.25;0.30;;;2.60;91.60;;;;;;5054991;28;20036;-74
2020/12/29 05:06:26;;;;;;;0.20;0.17;;;2.60;91.30;;;;;;5054039;28;20120;-74
2020/12/29 05:08:53;;;;;;;0.50;0.10;;;2.60;91.60;;;;;;5054794;28;20462;-74
2020/12/29 05:11:21;;;;;;;0.70;0.30;;;2.70;91.60;;;;;;5055266;28;20036;-73
2020/12/29 05:13:48;;;;;;;0.27;0.13;;;2.70;91.70;;;;;;5055849;28;20544;-74
2020/12/29 05:16:13;;;;;;;0.33;0.23;;;2.70;91.40;;;;;;5055004;28;20031;-73
2020/12/29 05:18:40;;;;;;;0.77;0.10;;;2.70;91.60;;;;;;5054390;28;20029;-74
2020/12/29 05:21:06;;;;;;;0.47;0.10;;;2.70;91.40;;;;;;5053973;28;20114;-74
2020/12/29 05:23:31;;;;;;;0.00;0.00;;;2.70;91.50;;;;;;5054966;28;20037;-74
2020/12/29 05:25:57;;;;;;;0.07;0.00;;;2.70;91.30;;;;;;5055646;28;20029;-74
2020/12/29 05:28:25;;;;;;;0.10;0.10;;;2.70;91.50;;;;;;5055251;28;20055;-73
2020/12/29 05:30:56;;;;;;;0.00;0.00;;;2.70;91.30;;;;;;5054251;28;20060;-73
2020/12/29 05:33:21;;;;;;;0.00;0.00;;;2.70;91.30;;;;;;5053534;28;20478;-74
2020/12/29 05:35:51;;;;;;;1.60;0.10;;;2.70;91.50;;;;;;5055413;28;20124;-74
2020/12/29 05:38:17;;;;;;;0.00;0.00;;;2.60;91.40;;;;;;5054694;28;20480;-74
2020/12/29 05:40:46;;;;;;;0.00;0.00;;;2.60;91.40;;;;;;5055257;28;20036;-74
2020/12/29 05:43:12;;;;;;;0.00;0.00;;;2.60;91.40;;;;;;5054234;28;20040;-74
2020/12/29 05:45:39;;;;;;;0.17;0.10;;;2.60;91.30;;;;;;5055050;28;20025;-74
2020/12/29 05:48:05;;;;;;;0.87;0.30;;;2.60;91.40;;;;;;5054057;28;20466;-73
2020/12/29 05:50:31;;;;;;;1.23;0.30;;;2.60;91.20;;;;;;5054562;28;20462;-74
2020/12/29 05:53:04;;;;;;;0.70;0.30;;;2.60;91.30;;;;;;5054644;28;20031;-74
2020/12/29 05:55:32;;;;;;;0.53;0.27;;;2.60;91.30;;;;;;5053125;28;20386;-74
2020/12/29 05:58:04;;;;;;;0.83;0.40;;;2.60;91.50;;;;;;5053678;28;20056;-74
2020/12/29 06:00:30;;;;;;;1.17;0.30;;;2.60;91.50;;;;;;5052982;28;20191;-74
2020/12/29 06:02:57;;;;;;;0.27;0.10;;;2.60;91.40;;;;;;5087457;28;20489;-74
2020/12/29 06:05:25;;;;;;;0.10;0.10;;;2.60;91.40;;;;;;5052850;28;20032;-74
2020/12/29 06:07:58;;;;;;;0.67;0.40;;;2.60;91.40;;;;;;5053695;28;20021;-74
2020/12/29 06:10:25;;;;;;;0.20;0.10;;;2.60;91.50;;;;;;5053006;28;20028;-74
2020/12/29 06:12:56;;;;;;;0.23;0.10;;;2.60;91.40;;;;;;5054690;28;20033;-74
2020/12/29 06:15:24;;;;;;;0.50;0.10;;;2.70;91.50;;;;;;5052810;28;20514;-73
2020/12/29 06:17:55;;;;;;;0.20;0.10;;;2.70;91.40;;;;;;5054587;28;20029;-73
2020/12/29 06:20:21;;;;;;;0.50;0.10;;;2.70;91.40;;;;;;5053717;28;20061;-74
2020/12/29 06:22:50;;;;;;;0.40;0.10;;;2.70;91.30;;;;;;5053216;28;20040;-73
2020/12/29 06:25:17;;;;;;;0.07;0.00;;;2.70;91.30;;;;;;5053807;28;20405;-73
2020/12/29 06:27:51;;;;;;;0.17;0.00;;;2.70;91.40;;;;;;5053372;28;20065;-74
2020/12/29 06:30:20;;;;;;;0.30;0.17;;;2.70;91.40;;;;;;5052640;28;20492;-73
2020/12/29 06:32:49;;;;;;;0.43;0.10;;;2.70;91.30;;;;;;5053000;28;20036;-74
2020/12/29 06:35:16;;;;;;;2.00;0.20;;;2.80;91.30;;;;;;5054250;28;20344;-74
2020/12/29 06:37:50;;;;;;;0.10;0.10;;;2.80;91.40;;;;;;5054200;28;20025;-74
2020/12/29 06:40:17;;;;;;;0.20;0.10;;;2.80;91.20;;;;;;5053978;28;20111;-73
2020/12/29 06:42:43;;;;;;;0.30;0.10;;;2.80;91.10;;;;;;5052785;28;20024;-74
2020/12/29 06:45:11;;;;;;;0.70;0.10;;;2.80;91.30;;;;;;5054109;28;20029;-74
2020/12/29 06:47:45;;;;;;;0.63;0.10;;;2.80;91.20;;;;;;5052112;28;20029;-74
2020/12/29 06:50:31;;;;;;;1.70;0.20;;;2.80;91.20;;;;;;5052819;28;20037;-74
2020/12/29 06:53:02;;;;;;;0.20;0.20;;;2.80;91.10;;;;;;5053988;28;20466;-74
2020/12/29 06:55:28;;;;;;;0.17;0.10;;;2.80;91.30;;;;;;5053092;28;20036;-73
2020/12/29 06:57:54;;;;;;;0.27;0.10;;;2.80;91.20;;;;;;5052559;28;20032;-74
2020/12/29 07:00:22;;;;;;;0.40;0.10;;;2.80;91.30;;;;;;5052024;28;20033;-73
2020/12/29 07:02:50;;;;;;;0.20;0.13;;;2.90;91.20;;;;;;5053712;28;20032;-74
2020/12/29 07:05:17;;;;;;;0.63;0.20;;;2.90;91.20;;;;;;5051586;28;20052;-74
2020/12/29 07:07:50;;;;;;;0.60;0.30;;;2.90;91.20;;;;;;5052356;28;20390;-74
2020/12/29 07:10:16;;;;;;;0.30;0.20;;;2.90;91.10;;;;;;5052338;28;20033;-74
2020/12/29 07:12:44;;;;;;;0.47;0.20;;;2.90;91.10;;;;;;5051787;28;20032;-74
2020/12/29 07:15:12;;;;;;;0.50;0.40;;;3.00;91.00;;;;;;5052234;28;20033;-74
2020/12/29 07:17:38;;;;;;;0.37;0.20;;;2.90;91.10;;;;;;5051561;28;20414;-74
2020/12/29 07:20:13;;;;;;;0.10;0.00;;;3.00;91.00;;;;;;5051913;28;20036;-73
2020/12/29 07:22:39;;;;;;;0.30;0.20;;;3.00;90.80;;;;;;5052756;28;20055;-74
2020/12/29 07:25:05;;;;;;;0.80;0.23;;;3.00;90.80;;;;;;5053368;28;20437;-74
2020/12/29 07:27:31;;;;;;;0.30;0.10;;;3.00;90.80;;;;;;5051062;28;20037;-74
2020/12/29 07:29:59;;;;;;;0.37;0.20;;;3.00;90.70;;;;;;5053194;28;20025;-74
2020/12/29 07:32:26;;;;;;;0.20;0.10;;;3.10;90.80;;;;;;5051492;28;20025;-73
2020/12/29 07:34:52;;;;;;;0.30;0.10;;;3.00;90.90;;;;;;5051797;28;20033;-74
2020/12/29 07:37:24;;;;;;;0.20;0.10;;;3.10;90.60;;;;;;5053040;28;20096;-75
2020/12/29 07:39:50;;;;;;;0.47;0.20;;;3.10;90.70;;;;;;5051768;28;20021;-74
2020/12/29 07:42:16;;;;;;;0.47;0.17;;;3.10;90.80;;;;;;5051637;28;20080;-74
2020/12/29 07:44:43;;;;;;;0.30;0.30;;;3.10;90.70;;;;;;5051034;28;20415;-74
2020/12/29 07:47:09;;;;;;;0.40;0.13;;;3.20;90.80;;;;;;5053009;28;20032;-74
2020/12/29 07:49:34;;;;;;;0.50;0.20;;;3.10;90.50;;;;;;5052520;28;20079;-74
2020/12/29 07:52:00;;;;;;;1.63;0.10;;;3.20;90.50;;;;;;5051796;28;20033;-74
2020/12/29 07:54:26;;;;;;;0.40;0.10;;;3.20;90.50;;;;;;5050994;28;20367;-73
2020/12/29 07:56:52;;;;;;;0.20;0.10;;;3.30;90.30;;;;;;5052742;28;20024;-74
2020/12/29 07:59:19;;;;;;;0.40;0.10;;;3.20;90.30;;;;;;5051591;28;20405;-74
2020/12/29 08:01:55;;;;;;;0.53;0.27;;;3.30;90.30;;;;;;5050744;28;20486;-74
2020/12/29 08:04:34;;;;;;;0.17;0.10;;;3.30;90.20;;;;;;5052241;28;20524;-73
2020/12/29 08:07:07;;;;;;;0.03;0.03;;;3.30;90.30;;;;;;5052694;28;20032;-74
2020/12/29 08:09:46;;;;;;;0.37;0.10;;;3.30;90.60;;;;;;5050931;28;20029;-74
2020/12/29 08:12:17;;;;;;;0.23;0.10;;;3.30;90.40;;;;;;5052561;28;20505;-74
2020/12/29 08:14:43;;;;;;;0.50;0.20;;;3.30;90.30;;;;;;5050849;28;20028;-74
2020/12/29 08:17:09;;;;;;;0.20;0.20;;;3.30;90.20;;;;;;5051120;28;20020;-74
2020/12/29 08:19:35;;;;;;;0.50;0.20;;;3.40;90.30;;;;;;5051851;28;20028;-74
2020/12/29 08:22:11;;;;;;;0.93;0.40;;;3.40;90.10;;;;;;5050823;28;20521;-74
2020/12/29 08:24:41;;;;;;;0.47;0.10;;;3.50;90.30;;;;;;5051871;28;20112;-74
2020/12/29 08:27:07;;;;;;;0.33;0.20;;;3.50;90.20;;;;;;5051247;28;20031;-74
2020/12/29 08:29:33;;;;;;;0.17;0.10;;;3.50;90.10;;;;;;5052151;28;20116;-74
2020/12/29 08:32:10;;;;;;;0.10;0.00;;;3.50;90.20;;;;;;5052418;28;20108;-74
2020/12/29 08:34:40;;;;;;;0.13;0.00;;;3.50;89.80;;;;;;5050575;28;20021;-74
2020/12/29 08:37:08;;;;;;;0.27;0.10;;;3.60;89.80;;;;;;5051048;28;20025;-74
2020/12/29 08:39:33;;;;;;;0.37;0.20;;;3.60;89.40;;;;;;5051709;28;20131;-74
2020/12/29 08:42:02;;;;;;;0.20;0.10;;;3.70;89.60;;;;;;5051961;28;20482;-74
2020/12/29 08:44:31;;;;;;;0.00;0.00;;;3.70;89.80;;;;;;5050495;28;20120;-74
2020/12/29 08:46:57;;;;;;;0.13;0.10;;;3.70;89.40;;;;;;5050786;28;20065;-74
2020/12/29 08:49:30;;;;;;;0.23;0.10;;;3.80;89.30;;;;;;5052532;28;20048;-74
2020/12/29 08:51:56;;;;;;;0.30;0.10;;;3.80;88.90;;;;;;5051217;28;20449;-74
2020/12/29 08:54:22;;;;;;;0.13;0.00;;;3.80;89.00;;;;;;5052277;28;20466;-74
2020/12/29 08:56:48;;;;;;;0.37;0.10;;;3.90;88.40;;;;;;5050329;28;20025;-74
2020/12/29 08:59:15;;;;;;;0.33;0.10;;;3.80;88.50;;;;;;5052160;28;20071;-74
2020/12/29 09:01:43;;;;;;;0.20;0.20;;;3.80;88.50;;;;;;5051410;28;20032;-75
2020/12/29 09:04:39;;;;;;;0.27;0.20;;;3.80;88.30;;;;;;5052064;28;20029;-74
2020/12/29 09:07:15;;;;;;;0.10;0.00;;;3.90;88.70;;;;;;5050914;28;20032;-75
2020/12/29 09:09:52;;;;;;;0.17;0.10;;;3.90;88.30;;;;;;5051487;28;20029;-74
2020/12/29 09:12:23;;;;;;;0.87;0.23;;;3.90;88.70;;;;;;5050743;28;20033;-74
2020/12/29 09:14:53;;;;;;;0.73;0.13;;;3.90;88.30;;;;;;5051422;28;20057;-74
2020/12/29 09:17:19;;;;;;;0.70;0.20;;;4.00;87.50;;;;;;5050722;28;20493;-74
2020/12/29 09:20:28;;;;;;;0.50;0.20;;;4.00;88.10;;;;;;5050054;28;20273;-74
2020/12/29 09:23:09;;;;;;;0.20;0.20;;;4.00;87.70;;;;;;5045655;28;20048;-74
2020/12/29 09:25:42;;;;;;;0.30;0.10;;;4.00;87.60;;;;;;5049982;28;20048;-74
2020/12/29 09:28:30;;;;;;;0.23;0.10;;;3.90;87.00;;;;;;5053237;28;20025;-74
2020/12/29 09:30:58;;;;;;;0.57;0.30;;;4.00;87.40;;;;;;5053997;28;20037;-74
2020/12/29 09:33:26;;;;;;;0.83;0.70;;;4.00;87.10;;;;;;5055460;28;20051;-74
2020/12/29 09:35:52;;;;;;;0.23;0.20;;;4.00;87.10;;;;;;5054155;28;20083;-74
2020/12/29 09:38:18;;;;;;;1.60;0.30;;;4.00;87.20;;;;;;5054212;28;20025;-74
2020/12/29 09:40:45;;;;;;;0.20;0.10;;;4.00;86.90;;;;;;5053311;28;20073;-74
2020/12/29 09:43:12;;;;;;;0.50;0.20;;;4.00;87.10;;;;;;5053694;28;20025;-73
2020/12/29 09:45:37;;;;;;;0.20;0.17;;;4.00;87.00;;;;;;5053382;28;20027;-73
2020/12/29 09:48:03;;;;;;;0.27;0.20;;;4.00;87.10;;;;;;5054886;28;20100;-74
2020/12/29 09:50:29;;;;;;;0.47;0.20;;;4.00;86.30;;;;;;5053030;28;20033;-74
2020/12/29 09:52:54;;;;;;;0.30;0.30;;;4.10;86.80;;;;;;5053839;28;20513;-74
2020/12/29 09:55:20;;;;;;;0.40;0.20;;;4.10;86.70;;;;;;5053708;28;20033;-74
2020/12/29 09:57:46;;;;;;;0.63;0.20;;;4.10;85.90;;;;;;5053205;28;20029;-74
2020/12/29 10:00:11;;;;;;;0.37;0.30;;;4.10;86.70;;;;;;5053755;28;20358;-74
2020/12/29 10:02:37;;;;;;;0.57;0.30;;;4.10;86.10;;;;;;5054667;28;20083;-73
2020/12/29 10:05:03;;;;;;;1.47;0.40;;;4.10;86.30;;;;;;5053650;28;20545;-74
2020/12/29 10:07:28;;;;;;;3.00;0.60;;;4.20;86.30;;;;;;5054218;28;20050;-73
2020/12/29 10:09:54;;;;;;;1.90;0.83;;;4.20;86.40;;;;;;5054403;28;20029;-73
2020/12/29 10:12:21;;;;;;;2.03;1.03;;;4.20;86.00;;;;;;5054686;28;20025;-74
2020/12/29 10:14:46;;;;;;;1.50;0.90;;;4.20;85.60;;;;;;5054110;28;20130;-73
2020/12/29 10:17:12;;;;;;;1.10;0.67;;;4.20;85.30;;;;;;5054660;28;20465;-74
2020/12/29 10:19:38;;;;;;;1.50;0.80;;;4.20;85.40;;;;;;5052664;28;20466;-73
2020/12/29 10:22:03;;;;;;;2.57;0.90;;;4.20;85.80;;;;;;5052755;28;20071;-73
2020/12/29 10:24:29;;;;;;;2.07;0.93;;;4.20;85.40;;;;;;5053823;28;20021;-73
2020/12/29 10:26:56;;;;;;;2.40;1.30;;;4.20;85.90;;;;;;5054487;28;20480;-73
2020/12/29 10:29:22;;;;;;;1.77;1.00;;;4.20;85.70;;;;;;5053234;28;20359;-74
2020/12/29 10:31:48;;;;;;;1.67;0.87;;;4.20;85.70;;;;;;5052472;28;20091;-74
2020/12/29 10:34:16;;;;;;;1.43;0.60;;;4.20;85.30;;;;;;5053053;28;20470;-74
2020/12/29 10:36:42;;;;;;;1.77;0.80;;;4.20;86.50;;;;;;5052462;28;20031;-74
2020/12/29 10:39:09;;;;;;;1.30;0.80;;;4.20;85.70;;;;;;5054220;28;20021;-74
2020/12/29 10:41:37;;;;;;;1.53;0.83;;;4.30;86.10;;;;;;5053451;28;20041;-73
2020/12/29 10:44:04;;;;;;;1.27;0.70;;;4.30;85.60;;;;;;5052833;28;20112;-74
2020/12/29 10:46:30;;;;;;;1.27;0.60;;;4.40;85.60;;;;;;5052794;28;20099;-74
2020/12/29 10:48:56;;;;;;;0.73;0.60;;;4.50;85.30;;;;;;5053789;28;20466;-73
2020/12/29 10:51:23;;;;;;;1.67;0.57;;;4.50;84.70;;;;;;5054029;28;20049;-74
2020/12/29 10:53:49;;;;;;;1.17;0.70;;;4.60;85.10;;;;;;5053045;28;20386;-74
2020/12/29 10:56:16;;;;;;;2.00;0.60;;;4.60;85.20;;;;;;5052964;28;20182;-74
2020/12/29 10:58:42;;;;;;;1.27;0.70;;;4.70;84.30;;;;;;5052038;28;20036;-73
2020/12/29 11:01:12;;;;;;;1.33;0.60;;;4.70;84.90;;;;;;5052572;28;20039;-74
2020/12/29 11:03:37;;;;;;;2.17;0.80;;;4.70;84.90;;;;;;5053223;28;20039;-73
2020/12/29 11:06:13;;;;;;;1.83;0.60;;;4.70;84.60;;;;;;5052464;28;20020;-74
2020/12/29 11:08:39;;;;;;;1.20;0.40;;;4.70;84.60;;;;;;5053110;28;20071;-73
2020/12/29 11:11:05;;;;;;;0.70;0.50;;;4.70;84.50;;;;;;5053566;28;20032;-74
2020/12/29 11:13:30;;;;;;;1.97;0.70;;;4.70;84.50;;;;;;5051932;28;20079;-74
2020/12/29 11:15:56;;;;;;;1.77;0.53;;;4.80;84.20;;;;;;5051621;28;20028;-74
2020/12/29 11:18:22;;;;;;;0.90;0.60;;;4.80;84.20;;;;;;5053207;28;20079;-74
2020/12/29 11:20:51;;;;;;;1.97;0.80;;;4.80;83.70;;;;;;5052549;28;20356;-74
2020/12/29 11:23:17;;;;;;;1.23;0.60;;;4.80;83.60;;;;;;5053358;28;20113;-73
2020/12/29 11:25:42;;;;;;;1.87;0.80;;;4.80;82.00;;;;;;5051521;28;20116;-73
2020/12/29 11:28:08;;;;;;;2.37;0.70;;;4.80;82.20;;;;;;5051990;28;20021;-74
2020/12/29 11:30:33;;;;;;;2.63;0.53;;;4.80;81.70;;;;;;5052355;28;20478;-73
2020/12/29 11:32:59;;;;;;;2.30;0.60;;;4.80;79.50;;;;;;5051946;28;20512;-74
2020/12/29 11:35:25;;;;;;;2.30;0.87;;;4.80;79.30;;;;;;5052857;28;20035;-74
2020/12/29 11:37:50;;;;;;;2.50;0.67;;;4.80;79.00;;;;;;5050993;28;20039;-74
2020/12/29 11:40:16;;;;;;;1.73;0.57;;;4.80;79.50;;;;;;5052947;28;20100;-74
2020/12/29 11:42:42;;;;;;;1.77;0.50;;;4.80;79.00;;;;;;5051150;28;20032;-74
2020/12/29 11:45:07;;;;;;;1.63;0.50;;;4.90;78.60;;;;;;5051825;28;20082;-74
2020/12/29 11:47:33;;;;;;;1.53;0.53;;;5.00;77.80;;;;;;5051577;28;20110;-74
2020/12/29 11:49:59;;;;;;;1.97;0.40;;;5.00;77.90;;;;;;5051291;28;20070;-74
2020/12/29 11:52:25;;;;;;;2.97;0.60;;;5.10;78.00;;;;;;5051240;28;20033;-74
2020/12/29 11:54:51;;;;;;;0.93;0.40;;;5.10;78.30;;;;;;5052317;28;20118;-74
2020/12/29 11:57:18;;;;;;;1.30;0.87;;;5.10;78.90;;;;;;5051729;28;20021;-74
2020/12/29 11:59:43;;;;;;;2.40;1.00;;;5.00;78.70;;;;;;5050858;28;20416;-75
2020/12/29 12:02:09;;;;;;;0.80;0.60;;;5.00;78.40;;;;;;5051370;28;20045;-74
2020/12/29 12:04:35;;;;;;;1.93;0.60;;;5.10;78.80;;;;;;5052203;28;20025;-73
2020/12/29 12:07:01;;;;;;;3.00;0.40;;;5.10;77.80;;;;;;5052677;28;20434;-74
2020/12/29 12:09:27;;;;;;;1.37;0.40;;;5.10;78.30;;;;;;5052668;28;20049;-74
2020/12/29 12:11:53;;;;;;;0.90;0.40;;;5.20;77.70;;;;;;5050726;28;20071;-73
2020/12/29 12:14:19;;;;;;;2.33;0.53;;;5.10;78.00;;;;;;5052683;28;20485;-74
2020/12/29 12:16:45;;;;;;;1.37;0.63;;;5.20;78.30;;;;;;5050747;28;20029;-74
2020/12/29 12:19:10;;;;;;;1.33;0.50;;;5.20;77.10;;;;;;5052231;28;20025;-74
2020/12/29 12:21:36;;;;;;;1.07;0.30;;;5.20;78.10;;;;;;5051339;28;20483;-73
2020/12/29 12:24:02;;;;;;;2.50;0.57;;;5.20;77.40;;;;;;5052659;28;20076;-74
2020/12/29 12:26:29;;;;;;;0.43;0.23;;;5.20;78.10;;;;;;5051410;28;20454;-74
2020/12/29 12:28:54;;;;;;;2.10;0.37;;;5.30;77.50;;;;;;5050536;28;20025;-74
2020/12/29 12:31:21;;;;;;;2.23;0.40;;;5.40;77.00;;;;;;5051110;28;20029;-74
2020/12/29 12:33:47;;;;;;;1.27;0.40;;;5.70;75.90;;;;;;5051867;28;20056;-74
2020/12/29 12:36:13;;;;;;;1.60;0.57;;;5.60;76.30;;;;;;5052324;28;20029;-74
2020/12/29 12:38:41;;;;;;;2.33;0.47;;;5.60;76.90;;;;;;5050522;28;20021;-73
2020/12/29 12:41:08;;;;;;;1.67;0.40;;;5.70;76.30;;;;;;5051009;28;20029;-74
2020/12/29 12:43:33;;;;;;;1.53;0.40;;;5.70;75.80;;;;;;5051011;28;20028;-74
2020/12/29 12:45:59;;;;;;;0.90;0.30;;;5.70;76.30;;;;;;5051643;28;20025;-74
2020/12/29 12:48:25;;;;;;;1.73;0.60;;;5.70;76.50;;;;;;5052534;28;20369;-74
2020/12/29 12:50:50;;;;;;;1.67;0.50;;;5.70;76.30;;;;;;5052024;28;20584;-74
2020/12/29 12:53:16;;;;;;;1.77;0.33;;;5.70;76.80;;;;;;5051181;28;20061;-74
2020/12/29 12:55:42;;;;;;;1.53;0.30;;;5.70;77.00;;;;;;5051351;28;20474;-74
2020/12/29 12:58:07;;;;;;;0.80;0.27;;;5.60;76.90;;;;;;5052281;28;20025;-74